createdAt,value
2023-05-05T00:01:47.593Z,10.05
2023-05-05T00:03:49.214Z,10.06
2023-05-05T00:05:52.361Z,10.04
2023-05-05T00:07:56.402Z,10.03
2023-05-05T00:09:58.044Z,10.04
2023-05-05T00:11:59.726Z,10.02
2023-05-05T00:14:02.575Z,10.02
2023-05-05T00:16:04.909Z,10.02
2023-05-05T00:18:06.843Z,10.01
2023-05-05T00:20:09.938Z,10.00
2023-05-05T00:22:11.657Z,10.01
2023-05-05T00:24:13.690Z,9.99
2023-05-05T00:26:15.912Z,10.00
2023-05-05T00:28:17.517Z,9.99
2023-05-05T00:30:21.982Z,10.00
2023-05-05T00:32:23.608Z,10.00
2023-05-05T00:34:25.424Z,10.00
2023-05-05T00:36:27.308Z,10.00
2023-05-05T00:38:28.949Z,9.98
2023-05-05T00:40:30.633Z,9.98
2023-05-05T00:42:39.872Z,9.98
2023-05-05T00:44:42.312Z,9.97
2023-05-05T00:46:45.653Z,9.96
2023-05-05T00:48:47.501Z,9.94
2023-05-05T00:50:49.142Z,9.93
2023-05-05T00:52:53.309Z,9.95
2023-05-05T00:54:55.975Z,9.94
2023-05-05T00:56:58.282Z,9.94
2023-05-05T00:59:00.054Z,9.96
2023-05-05T01:01:01.663Z,9.95
2023-05-05T01:03:05.681Z,9.96
2023-05-05T01:05:08.498Z,9.97
2023-05-05T01:07:24.238Z,9.97
2023-05-05T01:09:39.177Z,10.00
2023-05-05T01:11:49.120Z,9.99
2023-05-05T01:13:59.740Z,10.00
2023-05-05T01:16:12.279Z,9.99
2023-05-05T01:18:25.148Z,9.99
2023-05-05T01:20:33.572Z,9.99
2023-05-05T01:22:44.065Z,10.00
2023-05-05T01:25:03.847Z,9.98
2023-05-05T01:27:56.442Z,9.98
2023-05-05T01:30:10.743Z,9.97
2023-05-05T01:32:16.692Z,9.95
2023-05-05T01:34:23.736Z,9.93
2023-05-05T01:36:33.330Z,9.92
2023-05-05T01:38:39.121Z,9.91
2023-05-05T01:40:45.968Z,9.91
2023-05-05T01:42:49.953Z,9.91
2023-05-05T01:44:53.248Z,9.89
2023-05-05T01:46:56.847Z,9.88
2023-05-05T01:49:00.165Z,9.88
2023-05-05T01:51:03.708Z,9.87
2023-05-05T01:53:07.239Z,9.87
2023-05-05T01:55:20.895Z,9.87
2023-05-05T01:57:25.391Z,9.86
2023-05-05T01:59:29.001Z,9.86
2023-05-05T02:01:34.155Z,9.85
2023-05-05T02:03:37.892Z,9.82
2023-05-05T02:05:43.633Z,9.82
2023-05-05T02:07:48.512Z,9.79
2023-05-05T02:09:53.094Z,9.77
2023-05-05T02:11:57.962Z,9.79
2023-05-05T02:14:03.243Z,9.77
2023-05-05T02:16:07.010Z,9.76
2023-05-05T02:18:10.979Z,9.74
2023-05-05T02:20:14.651Z,9.73
2023-05-05T02:22:18.274Z,9.72
2023-05-05T02:24:20.299Z,9.71
2023-05-05T02:26:24.480Z,9.68
2023-05-05T02:28:35.419Z,9.69
2023-05-05T02:30:39.218Z,9.65
2023-05-05T02:32:48.869Z,9.66
2023-05-05T02:34:53.190Z,9.65
2023-05-05T02:37:00.811Z,9.65
2023-05-05T02:39:11.494Z,9.62
2023-05-05T02:41:18.382Z,9.64
2023-05-05T02:43:23.942Z,9.61
2023-05-05T02:45:27.726Z,9.59
2023-05-05T02:47:35.294Z,9.59
2023-05-05T02:49:36.956Z,9.55
2023-05-05T02:51:38.553Z,9.55
2023-05-05T02:53:40.726Z,9.54
2023-05-05T02:55:55.834Z,9.54
2023-05-05T02:58:04.062Z,9.54
2023-05-05T03:00:11.199Z,9.54
2023-05-05T03:02:18.425Z,9.53
2023-05-05T03:04:26.669Z,9.52
2023-05-05T03:06:32.077Z,9.50
2023-05-05T03:08:43.728Z,9.50
2023-05-05T03:11:00.508Z,9.50
2023-05-05T03:13:03.418Z,9.49
2023-05-05T03:15:08.748Z,9.50
2023-05-05T03:17:12.273Z,9.49
2023-05-05T03:19:17.331Z,9.48
2023-05-05T03:21:20.772Z,9.47
2023-05-05T03:23:22.577Z,9.47
2023-05-05T03:25:41.929Z,9.49
2023-05-05T03:27:44.973Z,9.47
2023-05-05T03:29:46.861Z,9.45
2023-05-05T03:31:49.373Z,9.44
2023-05-05T03:33:51.388Z,9.46
2023-05-05T03:35:53.539Z,9.44
2023-05-05T03:37:55.390Z,9.43
2023-05-05T03:39:56.924Z,9.41
2023-05-05T03:41:58.782Z,9.42
2023-05-05T03:44:01.833Z,9.41
2023-05-05T03:46:03.971Z,9.42
2023-05-05T03:48:06.575Z,9.41
2023-05-05T03:50:09.524Z,9.40
2023-05-05T03:52:13.179Z,9.42
2023-05-05T03:54:16.080Z,9.43
2023-05-05T03:56:17.589Z,9.43
2023-05-05T03:58:19.099Z,9.42
2023-05-05T04:00:22.358Z,9.41
2023-05-05T04:02:24.605Z,9.40
2023-05-05T04:04:26.230Z,9.40
2023-05-05T04:06:28.121Z,9.41
2023-05-05T04:08:29.781Z,9.40
2023-05-05T04:10:31.529Z,9.39
2023-05-05T04:12:33.146Z,9.39
2023-05-05T04:14:34.725Z,9.39
2023-05-05T04:16:37.648Z,9.40
2023-05-05T04:18:39.483Z,9.39
2023-05-05T04:20:41.332Z,9.39
2023-05-05T04:22:43.224Z,9.38
2023-05-05T04:24:45.292Z,9.40
2023-05-05T04:26:47.410Z,9.38
2023-05-05T04:28:49.240Z,9.38
2023-05-05T04:30:51.388Z,9.39
2023-05-05T04:32:54.461Z,9.39
2023-05-05T04:34:56.123Z,9.41
2023-05-05T04:36:57.685Z,9.41
2023-05-05T04:38:59.386Z,9.42
2023-05-05T04:41:01.024Z,9.42
2023-05-05T04:43:02.880Z,9.43
2023-05-05T04:45:06.735Z,9.45
2023-05-05T04:47:08.759Z,9.46
2023-05-05T04:49:11.810Z,9.45
2023-05-05T04:51:14.436Z,9.46
2023-05-05T04:53:17.277Z,9.45
2023-05-05T04:55:19.472Z,9.49
2023-05-05T04:57:22.126Z,9.50
2023-05-05T04:59:24.996Z,9.52
2023-05-05T05:01:27.112Z,9.53
2023-05-05T05:03:28.965Z,9.55
2023-05-05T05:05:32.434Z,9.56
2023-05-05T05:07:34.253Z,9.57
2023-05-05T05:09:36.071Z,9.58
2023-05-05T05:11:37.882Z,9.59
2023-05-05T05:13:39.553Z,9.59
2023-05-05T05:15:41.380Z,9.61
2023-05-05T05:17:43.245Z,9.61
2023-05-05T05:19:45.179Z,9.64
2023-05-05T05:21:48.037Z,9.63
2023-05-05T05:23:49.587Z,9.63
2023-05-05T05:25:51.273Z,9.64
2023-05-05T05:28:06.204Z,9.64
2023-05-05T05:30:12.480Z,9.65
2023-05-05T05:32:14.132Z,9.67
2023-05-05T05:34:15.955Z,9.68
2023-05-05T05:36:17.500Z,9.66
2023-05-05T05:38:20.577Z,9.65
2023-05-05T05:40:22.386Z,9.66
2023-05-05T05:42:24.064Z,9.67
2023-05-05T05:44:25.884Z,9.66
2023-05-05T05:46:27.465Z,9.66
2023-05-05T05:48:29.138Z,9.68
2023-05-05T05:50:30.838Z,9.68
2023-05-05T05:52:33.056Z,9.69
2023-05-05T05:54:36.192Z,9.70
2023-05-05T05:56:37.848Z,9.71
2023-05-05T05:58:39.610Z,9.73
2023-05-05T06:00:41.210Z,9.74
2023-05-05T06:02:42.929Z,9.74
2023-05-05T06:04:44.625Z,9.76
2023-05-05T06:06:46.173Z,9.78
2023-05-05T06:08:47.808Z,9.80
2023-05-05T06:10:50.684Z,9.79
2023-05-05T06:12:52.565Z,9.84
2023-05-05T06:14:54.271Z,9.86
2023-05-05T06:16:56.212Z,9.89
2023-05-05T06:18:58.021Z,9.90
2023-05-05T06:20:59.813Z,9.92
2023-05-05T06:23:01.458Z,9.95
2023-05-05T06:25:03.342Z,9.98
2023-05-05T06:27:06.319Z,9.99
2023-05-05T06:29:08.777Z,10.02
2023-05-05T06:31:11.068Z,10.06
2023-05-05T06:33:12.783Z,10.09
2023-05-05T06:35:14.595Z,10.12
2023-05-05T06:37:16.208Z,10.18
2023-05-05T06:39:18.055Z,10.21
2023-05-05T06:41:19.743Z,10.25
2023-05-05T06:43:23.090Z,10.31
2023-05-05T06:45:25.456Z,10.33
2023-05-05T06:47:27.637Z,10.35
2023-05-05T06:49:29.465Z,10.36
2023-05-05T06:51:31.855Z,10.41
2023-05-05T06:53:33.740Z,10.43
2023-05-05T06:55:35.381Z,10.50
2023-05-05T06:57:37.094Z,10.56
2023-05-05T06:59:40.154Z,10.61
2023-05-05T07:01:41.842Z,10.64
2023-05-05T07:03:44.547Z,10.69
2023-05-05T07:05:46.186Z,10.73
2023-05-05T07:07:51.611Z,10.74
2023-05-05T07:09:53.173Z,10.78
2023-05-05T07:11:54.915Z,10.82
2023-05-05T07:13:56.507Z,10.84
2023-05-05T07:15:59.811Z,10.87
2023-05-05T07:18:01.810Z,10.87
2023-05-05T07:20:04.103Z,10.89
2023-05-05T07:22:05.789Z,10.89
2023-05-05T07:24:08.406Z,10.91
2023-05-05T07:26:10.227Z,10.92
2023-05-05T07:28:11.885Z,10.96
2023-05-05T07:30:17.343Z,10.99
2023-05-05T07:32:21.816Z,11.01
2023-05-05T07:34:23.537Z,11.01
2023-05-05T07:36:25.291Z,11.01
2023-05-05T07:38:27.122Z,11.01
2023-05-05T07:40:28.772Z,11.01
2023-05-05T07:42:30.559Z,11.01
2023-05-05T07:44:32.539Z,11.03
2023-05-05T07:46:34.501Z,11.04
2023-05-05T07:48:37.864Z,11.04
2023-05-05T07:50:39.675Z,11.06
2023-05-05T07:52:46.716Z,11.05
2023-05-05T07:54:51.925Z,11.03
2023-05-05T07:56:53.820Z,11.03
2023-05-05T07:58:55.629Z,11.02
2023-05-05T08:00:57.482Z,11.01
2023-05-05T08:02:59.358Z,11.00
2023-05-05T08:05:02.669Z,10.98
2023-05-05T08:07:04.230Z,11.00
2023-05-05T08:09:06.091Z,11.02
2023-05-05T08:11:08.146Z,11.03
2023-05-05T08:13:10.076Z,11.04
2023-05-05T08:15:12.257Z,11.07
2023-05-05T08:17:13.866Z,11.08
2023-05-05T08:19:25.279Z,11.08
2023-05-05T08:21:32.411Z,11.08
2023-05-05T08:23:35.301Z,11.09
2023-05-05T08:25:37.117Z,11.11
2023-05-05T08:27:39.180Z,11.11
2023-05-05T08:29:40.977Z,11.12
2023-05-05T08:31:42.909Z,11.15
2023-05-05T08:33:44.742Z,11.15
2023-05-05T08:35:46.333Z,11.17
2023-05-05T08:37:51.168Z,11.18
2023-05-05T08:39:55.269Z,11.20
2023-05-05T08:41:57.681Z,11.25
2023-05-05T08:43:59.489Z,11.27
2023-05-05T08:46:01.550Z,11.26
2023-05-05T08:48:05.287Z,11.25
2023-05-05T08:50:10.816Z,11.28
2023-05-05T08:52:15.622Z,11.30
2023-05-05T08:54:21.606Z,11.31
2023-05-05T08:56:27.031Z,11.31
2023-05-05T08:58:31.174Z,11.32
2023-05-05T09:00:33.767Z,11.32
2023-05-05T09:02:36.583Z,11.33
2023-05-05T09:04:39.356Z,11.34
2023-05-05T09:06:41.204Z,11.34
2023-05-05T09:08:43.223Z,11.32
2023-05-05T09:10:47.129Z,11.35
2023-05-05T09:12:48.957Z,11.35
2023-05-05T09:14:50.614Z,11.37
2023-05-05T09:16:52.491Z,11.37
2023-05-05T09:19:01.429Z,11.40
2023-05-05T09:21:18.928Z,11.40
2023-05-05T09:23:21.280Z,11.38
2023-05-05T09:25:23.001Z,11.40
2023-05-05T09:27:28.071Z,11.44
2023-05-05T09:29:31.052Z,11.46
2023-05-05T09:31:34.125Z,11.49
2023-05-05T09:33:35.860Z,11.53
2023-05-05T09:35:51.023Z,11.58
2023-05-05T09:37:52.705Z,11.57
2023-05-05T09:39:55.630Z,11.62
2023-05-05T09:41:57.406Z,11.63
2023-05-05T09:44:00.711Z,11.66
2023-05-05T09:46:07.080Z,11.68
2023-05-05T09:48:22.976Z,11.70
2023-05-05T09:50:24.843Z,11.74
2023-05-05T09:52:27.075Z,11.80
2023-05-05T09:54:30.385Z,11.88
2023-05-05T09:56:39.017Z,11.98
2023-05-05T09:58:40.868Z,12.05
2023-05-05T10:00:44.334Z,12.12
2023-05-05T10:02:46.522Z,12.20
2023-05-05T10:04:48.773Z,12.29
2023-05-05T10:06:50.509Z,12.35
2023-05-05T10:09:01.612Z,12.47
2023-05-05T10:11:04.768Z,12.51
2023-05-05T10:13:06.600Z,12.58
2023-05-05T10:15:10.643Z,12.67
2023-05-05T10:17:15.969Z,12.77
2023-05-05T10:19:18.946Z,12.83
2023-05-05T10:21:21.418Z,12.81
2023-05-05T10:23:24.805Z,12.85
2023-05-05T10:25:29.746Z,12.87
2023-05-05T10:27:39.259Z,12.88
2023-05-05T10:29:48.160Z,12.94
2023-05-05T10:31:54.691Z,12.98
2023-05-05T10:34:03.781Z,13.01
2023-05-05T10:36:07.226Z,13.05
2023-05-05T10:38:09.479Z,13.09
2023-05-05T10:40:13.382Z,13.14
2023-05-05T10:42:18.140Z,13.21
2023-05-05T10:44:21.373Z,13.25
2023-05-05T10:46:24.062Z,13.29
2023-05-05T10:48:32.711Z,13.36
2023-05-05T10:50:44.642Z,13.41
2023-05-05T10:52:58.083Z,13.47
2023-05-05T10:55:08.213Z,13.57
2023-05-05T10:57:10.919Z,13.63
2023-05-05T10:59:39.843Z,13.76
2023-05-05T11:01:41.530Z,13.81
2023-05-05T11:03:43.497Z,13.91
2023-05-05T11:06:13.736Z,14.01
2023-05-05T11:08:25.960Z,14.09
2023-05-05T11:10:43.966Z,14.12
2023-05-05T11:13:20.029Z,14.14
2023-05-05T11:15:34.762Z,14.19
2023-05-05T11:17:46.871Z,14.21
2023-05-05T11:19:50.960Z,14.21
2023-05-05T11:22:05.439Z,14.19
2023-05-05T11:24:28.193Z,14.16
2023-05-05T11:26:49.594Z,14.12
2023-05-05T11:29:02.116Z,14.05
2023-05-05T11:31:17.024Z,14.04
2023-05-05T11:33:25.769Z,14.07
2023-05-05T11:35:54.957Z,14.11
2023-05-05T11:38:14.541Z,14.21
2023-05-05T11:40:22.062Z,14.23
2023-05-05T11:42:25.546Z,14.27
2023-05-05T11:44:31.927Z,14.32
2023-05-05T11:46:33.522Z,14.37
2023-05-05T11:48:44.307Z,14.45
2023-05-05T11:50:46.097Z,14.49
2023-05-05T11:52:47.888Z,14.57
2023-05-05T11:54:52.108Z,14.62
2023-05-05T11:56:54.888Z,14.68
2023-05-05T11:59:08.027Z,14.75
2023-05-05T12:01:10.061Z,14.84
2023-05-05T12:03:12.158Z,14.91
2023-05-05T12:05:20.621Z,14.97
2023-05-05T12:07:24.644Z,15.00
2023-05-05T12:09:27.931Z,15.06
2023-05-05T12:11:30.970Z,15.05
2023-05-05T12:13:32.933Z,15.07
2023-05-05T12:15:34.898Z,15.09
2023-05-05T12:17:38.782Z,15.14
2023-05-05T12:19:47.899Z,15.18
2023-05-05T12:21:49.821Z,15.22
2023-05-05T12:23:51.896Z,15.28
2023-05-05T12:25:54.573Z,15.32
2023-05-05T12:27:57.636Z,15.37
2023-05-05T12:30:13.663Z,15.38
2023-05-05T12:32:20.256Z,15.37
2023-05-05T12:34:22.068Z,15.37
2023-05-05T12:36:24.055Z,15.39
2023-05-05T12:38:25.828Z,15.41
2023-05-05T12:40:45.122Z,15.50
2023-05-05T12:42:48.014Z,15.54
2023-05-05T12:44:51.565Z,15.57
2023-05-05T12:46:53.199Z,15.64
2023-05-05T12:49:06.028Z,15.64
2023-05-05T12:51:15.528Z,15.66
2023-05-05T12:53:21.151Z,15.67
2023-05-05T12:55:35.540Z,15.76
2023-05-05T12:57:37.306Z,15.78
2023-05-05T12:59:39.219Z,15.81
2023-05-05T13:01:51.089Z,15.86
2023-05-05T13:04:09.988Z,15.95
2023-05-05T13:06:21.595Z,15.99
2023-05-05T13:08:23.606Z,15.98
2023-05-05T13:10:25.354Z,15.98
2023-05-05T13:12:27.208Z,15.98
2023-05-05T13:14:28.837Z,15.99
2023-05-05T13:16:30.728Z,15.99
2023-05-05T13:18:43.850Z,16.00
2023-05-05T13:20:45.449Z,16.03
2023-05-05T13:22:47.110Z,16.07
2023-05-05T13:24:52.394Z,16.13
2023-05-05T13:26:54.846Z,16.20
2023-05-05T13:28:56.438Z,16.26
2023-05-05T13:30:58.326Z,16.26
2023-05-05T13:33:00.272Z,16.27
2023-05-05T13:35:03.749Z,16.27
2023-05-05T13:37:05.354Z,16.29
2023-05-05T13:39:07.051Z,16.31
2023-05-05T13:41:08.915Z,16.32
2023-05-05T13:43:10.429Z,16.34
2023-05-05T13:45:13.194Z,16.29
2023-05-05T13:47:15.198Z,16.25
2023-05-05T13:49:17.612Z,16.20
2023-05-05T13:51:22.664Z,16.13
2023-05-05T13:53:24.511Z,16.09
2023-05-05T13:55:28.116Z,16.02
2023-05-05T13:57:32.056Z,15.95
2023-05-05T13:59:33.695Z,15.88
2023-05-05T14:01:37.719Z,15.85
2023-05-05T14:03:39.589Z,15.79
2023-05-05T14:05:44.364Z,15.74
2023-05-05T14:07:47.756Z,15.76
2023-05-05T14:09:51.248Z,15.76
2023-05-05T14:11:52.837Z,15.78
2023-05-05T14:13:54.354Z,15.74
2023-05-05T14:15:55.993Z,15.69
2023-05-05T14:17:57.631Z,15.64
2023-05-05T14:19:59.186Z,15.57
2023-05-05T14:22:00.971Z,15.52
2023-05-05T14:24:04.339Z,15.48
2023-05-05T14:26:05.923Z,15.39
2023-05-05T14:28:07.740Z,15.35
2023-05-05T14:30:10.214Z,15.29
2023-05-05T14:32:11.906Z,15.27
2023-05-05T14:34:13.438Z,15.25
2023-05-05T14:36:15.355Z,15.21
2023-05-05T14:38:18.411Z,15.17
2023-05-05T14:40:21.806Z,15.17
2023-05-05T14:42:23.599Z,15.11
2023-05-05T14:44:26.096Z,15.10
2023-05-05T14:46:28.221Z,15.08
2023-05-05T14:48:29.953Z,15.04
2023-05-05T14:50:31.526Z,15.02
2023-05-05T14:52:33.341Z,14.98
2023-05-05T14:54:35.163Z,14.91
2023-05-05T14:56:38.331Z,14.84
2023-05-05T14:58:40.153Z,14.80
2023-05-05T15:00:42.030Z,14.77
2023-05-05T15:02:43.864Z,14.70
2023-05-05T15:04:46.745Z,14.66
2023-05-05T15:06:50.027Z,14.62
2023-05-05T15:08:51.670Z,14.56
2023-05-05T15:10:53.342Z,14.55
2023-05-05T15:12:56.216Z,14.54
2023-05-05T15:14:58.028Z,14.52
2023-05-05T15:16:59.644Z,14.51
2023-05-05T15:19:01.699Z,14.48
2023-05-05T15:21:03.363Z,14.51
2023-05-05T15:23:05.105Z,14.53
2023-05-05T15:25:08.002Z,14.51
2023-05-05T15:27:09.740Z,14.51
2023-05-05T15:29:12.652Z,14.52
2023-05-05T15:31:14.838Z,14.52
2023-05-05T15:33:16.746Z,14.43
2023-05-05T15:35:18.505Z,14.38
2023-05-05T15:37:20.415Z,14.31
2023-05-05T15:39:22.016Z,14.27
2023-05-05T15:41:23.857Z,14.21
2023-05-05T15:43:25.671Z,14.19
2023-05-05T15:45:29.006Z,14.16
2023-05-05T15:47:30.906Z,14.12
2023-05-05T15:49:32.796Z,14.07
2023-05-05T15:51:35.070Z,13.98
2023-05-05T15:53:36.714Z,13.92
2023-05-05T15:55:38.569Z,13.88
2023-05-05T15:57:40.312Z,13.82
2023-05-05T15:59:42.161Z,13.78
2023-05-05T16:01:45.331Z,13.71
2023-05-05T16:03:47.214Z,13.63
2023-05-05T16:05:49.095Z,13.52
2023-05-05T16:07:51.124Z,13.45
2023-05-05T16:09:52.811Z,13.38
2023-05-05T16:11:54.413Z,13.31
2023-05-05T16:13:56.728Z,13.24
2023-05-05T16:15:58.540Z,13.19
2023-05-05T16:18:01.738Z,13.16
2023-05-05T16:20:04.280Z,13.13
2023-05-05T16:22:05.898Z,13.10
2023-05-05T16:24:07.744Z,13.07
2023-05-05T16:26:09.554Z,13.04
2023-05-05T16:28:11.484Z,13.03
2023-05-05T16:30:14.198Z,13.01
2023-05-05T16:32:16.053Z,12.99
2023-05-05T16:34:19.385Z,12.94
2023-05-05T16:36:21.051Z,12.90
2023-05-05T16:38:22.783Z,12.84
2023-05-05T16:40:24.954Z,12.80
2023-05-05T16:42:26.779Z,12.73
2023-05-05T16:44:28.414Z,12.64
2023-05-05T16:46:30.305Z,12.53
2023-05-05T16:48:32.166Z,12.50
2023-05-05T16:50:36.406Z,12.39
2023-05-05T16:52:38.031Z,12.31
2023-05-05T16:54:39.678Z,12.22
2023-05-05T16:56:41.348Z,12.13
2023-05-05T16:58:50.824Z,12.07
2023-05-05T17:00:52.658Z,12.00
2023-05-05T17:02:54.478Z,11.94
2023-05-05T17:04:56.209Z,11.91
2023-05-05T17:06:59.358Z,11.85
2023-05-05T17:09:00.989Z,11.80
2023-05-05T17:11:02.619Z,11.77
2023-05-05T17:13:04.279Z,11.68
2023-05-05T17:15:07.328Z,11.64
2023-05-05T17:17:09.223Z,11.57
2023-05-05T17:19:11.066Z,11.51
2023-05-05T17:21:13.559Z,11.47
2023-05-05T17:23:17.405Z,11.40
2023-05-05T17:25:20.948Z,11.34
2023-05-05T17:27:22.719Z,11.30
2023-05-05T17:29:25.053Z,11.31
2023-05-05T17:31:26.936Z,11.28
2023-05-05T17:33:28.586Z,11.24
2023-05-05T17:35:30.549Z,11.20
2023-05-05T17:37:32.624Z,11.15
2023-05-05T17:39:35.942Z,11.10
2023-05-05T17:41:37.525Z,11.06
2023-05-05T17:43:39.396Z,11.02
2023-05-05T17:45:41.463Z,11.00
2023-05-05T17:47:43.309Z,10.96
2023-05-05T17:49:44.963Z,10.92
2023-05-05T17:51:47.161Z,10.88
2023-05-05T17:53:48.770Z,10.85
2023-05-05T17:55:52.011Z,10.81
2023-05-05T17:57:53.620Z,10.77
2023-05-05T17:59:55.305Z,10.71
2023-05-05T18:01:56.918Z,10.66
2023-05-05T18:03:58.576Z,10.61
2023-05-05T18:06:00.233Z,10.55
2023-05-05T18:08:01.927Z,10.51
2023-05-05T18:10:04.034Z,10.45
2023-05-05T18:12:07.521Z,10.42
2023-05-05T18:14:09.223Z,10.38
2023-05-05T18:16:11.179Z,10.31
2023-05-05T18:18:13.088Z,10.29
2023-05-05T18:20:14.641Z,10.23
2023-05-05T18:22:16.180Z,10.19
2023-05-05T18:24:20.480Z,10.14
2023-05-05T18:26:22.427Z,10.08
2023-05-05T18:28:25.438Z,10.04
2023-05-05T18:30:27.297Z,10.01
2023-05-05T18:32:29.130Z,9.95
2023-05-05T18:34:30.699Z,9.94
2023-05-05T18:36:32.672Z,9.90
2023-05-05T18:38:35.556Z,9.88
2023-05-05T18:40:37.194Z,9.86
2023-05-05T18:42:39.211Z,9.82
2023-05-05T18:44:42.607Z,9.80
2023-05-05T18:46:45.156Z,9.77
2023-05-05T18:48:46.801Z,9.75
2023-05-05T18:50:48.618Z,9.72
2023-05-05T18:52:50.186Z,9.68
2023-05-05T18:54:51.842Z,9.66
2023-05-05T18:56:53.687Z,9.63
2023-05-05T18:58:55.535Z,9.62
2023-05-05T19:00:59.049Z,9.61
2023-05-05T19:03:00.814Z,9.59
2023-05-05T19:05:02.723Z,9.56
2023-05-05T19:07:04.699Z,9.53
2023-05-05T19:09:06.247Z,9.52
2023-05-05T19:11:07.855Z,9.50
2023-05-05T19:13:13.554Z,9.48
2023-05-05T19:15:15.986Z,9.46
2023-05-05T19:17:21.662Z,9.44
2023-05-05T19:19:23.304Z,9.44
2023-05-05T19:21:24.981Z,9.41
2023-05-05T19:23:26.670Z,9.41
2023-05-05T19:25:28.237Z,9.38
2023-05-05T19:27:30.091Z,9.38
2023-05-05T19:29:32.015Z,9.37
2023-05-05T19:31:33.704Z,9.35
2023-05-05T19:33:37.731Z,9.34
2023-05-05T19:35:39.541Z,9.34
2023-05-05T19:37:41.453Z,9.33
2023-05-05T19:39:43.255Z,9.33
2023-05-05T19:41:45.108Z,9.32
2023-05-05T19:43:46.714Z,9.33
2023-05-05T19:45:48.302Z,9.31
2023-05-05T19:47:50.056Z,9.30
2023-05-05T19:49:52.939Z,9.32
2023-05-05T19:51:54.558Z,9.31
2023-05-05T19:53:56.426Z,9.30
2023-05-05T19:55:58.208Z,9.28
2023-05-05T19:58:01.162Z,9.28
2023-05-05T20:00:02.882Z,9.29
2023-05-05T20:02:04.533Z,9.30
2023-05-05T20:04:06.167Z,9.29
2023-05-05T20:06:09.265Z,9.29
2023-05-05T20:08:11.124Z,9.27
2023-05-05T20:10:13.560Z,9.25
2023-05-05T20:12:15.616Z,9.26
2023-05-05T20:14:17.215Z,9.26
2023-05-05T20:16:19.370Z,9.26
2023-05-05T20:18:21.303Z,9.24
2023-05-05T20:20:23.472Z,9.24
2023-05-05T20:22:26.484Z,9.22
2023-05-05T20:24:28.221Z,9.23
2023-05-05T20:26:30.128Z,9.24
2023-05-05T20:28:32.040Z,9.23
2023-05-05T20:30:33.647Z,9.22
2023-05-05T20:32:35.684Z,9.23
2023-05-05T20:34:38.274Z,9.24
2023-05-05T20:36:39.916Z,9.24
2023-05-05T20:38:43.832Z,9.22
2023-05-05T20:40:45.432Z,9.21
2023-05-05T20:42:47.123Z,9.22
2023-05-05T20:44:48.737Z,9.20
2023-05-05T20:46:50.612Z,9.21
2023-05-05T20:48:52.871Z,9.21
2023-05-05T20:50:54.435Z,9.21
2023-05-05T20:52:56.472Z,9.20
2023-05-05T20:54:59.797Z,9.19
2023-05-05T20:57:01.798Z,9.18
2023-05-05T20:59:03.935Z,9.17
2023-05-05T21:01:05.949Z,9.15
2023-05-05T21:03:07.932Z,9.14
2023-05-05T21:05:10.113Z,9.14
2023-05-05T21:07:11.754Z,9.14
2023-05-05T21:09:13.343Z,9.14
2023-05-05T21:11:16.284Z,9.12
2023-05-05T21:13:18.215Z,9.15
2023-05-05T21:15:20.402Z,9.13
2023-05-05T21:17:22.053Z,9.13
2023-05-05T21:19:24.174Z,9.13
2023-05-05T21:21:25.784Z,9.10
2023-05-05T21:23:27.372Z,9.10
2023-05-05T21:25:29.649Z,9.09
2023-05-05T21:27:33.434Z,9.11
2023-05-05T21:29:35.264Z,9.09
2023-05-05T21:31:37.712Z,9.08
2023-05-05T21:33:39.316Z,9.08
2023-05-05T21:35:40.947Z,9.08
2023-05-05T21:37:42.836Z,9.07
2023-05-05T21:39:44.469Z,9.06
2023-05-05T21:41:46.059Z,9.06
2023-05-05T21:43:49.296Z,9.06
2023-05-05T21:45:58.428Z,9.06
2023-05-05T21:48:00.227Z,9.08
2023-05-05T21:50:02.196Z,9.06
2023-05-05T21:52:04.091Z,9.03
2023-05-05T21:54:05.771Z,9.03
2023-05-05T21:56:08.036Z,9.04
2023-05-05T21:58:09.564Z,9.05
2023-05-05T22:00:14.356Z,9.04
2023-05-05T22:02:16.183Z,9.03
2023-05-05T22:04:18.124Z,9.03
2023-05-05T22:06:20.280Z,9.03
2023-05-05T22:08:22.078Z,9.05
2023-05-05T22:10:23.750Z,9.04
2023-05-05T22:12:25.455Z,9.05
2023-05-05T22:14:27.011Z,9.05
2023-05-05T22:16:30.240Z,9.06
2023-05-05T22:18:32.372Z,9.04
2023-05-05T22:20:33.985Z,9.05
2023-05-05T22:22:35.643Z,9.03
2023-05-05T22:24:37.457Z,9.03
2023-05-05T22:26:40.303Z,9.03
2023-05-05T22:28:42.050Z,9.03
2023-05-05T22:30:43.966Z,9.01
2023-05-05T22:32:47.383Z,9.00
2023-05-05T22:34:49.310Z,9.00
2023-05-05T22:36:51.093Z,8.99
2023-05-05T22:38:54.179Z,9.00
2023-05-05T22:40:55.788Z,8.98
2023-05-05T22:42:57.471Z,8.98
2023-05-05T22:44:59.122Z,8.97
2023-05-05T22:47:00.787Z,8.96
2023-05-05T22:49:04.171Z,8.96
2023-05-05T22:51:06.055Z,8.96
2023-05-05T22:53:07.758Z,8.94
2023-05-05T22:55:10.222Z,8.93
2023-05-05T22:57:12.141Z,8.95
2023-05-05T22:59:13.754Z,8.94
2023-05-05T23:01:15.744Z,8.94
2023-05-05T23:03:17.728Z,8.93
2023-05-05T23:05:21.176Z,8.92
2023-05-05T23:07:23.072Z,8.91
2023-05-05T23:09:24.741Z,8.91
2023-05-05T23:11:27.041Z,8.92
2023-05-05T23:13:30.331Z,8.91
2023-05-05T23:15:32.254Z,8.89
2023-05-05T23:17:33.965Z,8.88
2023-05-05T23:19:35.979Z,8.89
2023-05-05T23:21:52.144Z,8.88
2023-05-05T23:23:54.917Z,8.86
2023-05-05T23:25:56.831Z,8.85
2023-05-05T23:27:58.594Z,8.85
2023-05-05T23:30:00.453Z,8.85
2023-05-05T23:32:02.282Z,8.84
2023-05-05T23:34:04.299Z,8.84
2023-05-05T23:36:06.428Z,8.83
2023-05-05T23:38:09.742Z,8.82
2023-05-05T23:40:11.580Z,8.80
2023-05-05T23:42:13.413Z,8.81
2023-05-05T23:44:15.482Z,8.79
2023-05-05T23:46:17.821Z,8.80
2023-05-05T23:48:19.771Z,8.80
2023-05-05T23:50:22.023Z,8.79
2023-05-05T23:52:23.824Z,8.80
2023-05-05T23:54:26.719Z,8.77
2023-05-05T23:56:28.525Z,8.76
2023-05-05T23:58:30.232Z,8.76
